Huvudsida
METAR-TAF:

METAR-TAF

Flygplatser :

Karachi, Pakistan

latitud: 24-54N, longitud: 067-08E, höjd: 21 m

Aktuellt väderrapport

Denna rapport gjordes för 15 timmar och 52 minuter sedan, klockan 14:55 UTC
Vind 6 kt från sydväst
Temperatur 24°C
Fuktighet 61%
Tryck 1012 hPa
Sikt: 5000 m
torrdis

METAR: OPKC 201455Z 22006KT 5000 HZ NSC 24/16 Q1012 NOSIG

Tid: 11:47 (06:47 UTC)

Väderprognos

Denna rapport gjordes för 20 timmar och 47 minuter sedan, klockan 10:00 UTC
Prognos gäller från 20 kl. 12 UTC till 21 kl. 18 UTC
Vind 5 kt från väst/sydväst i byarna ända upp till 15 kt
Sikt: 6000 m
Få moln på en höjd av 10000 ft
Temporärt
från 21 kl. 00 UTC till 21 kl. 04 UTC
Vind kt från nord
Sikt: 0500 m
dimma
Från 21 kl. 1500 UTC
Vind 7 kt från väst
Sikt: 3000 m
Få moln på en höjd av 10000 ft
rök

TAF: OPKC 201000Z 2012/2118 24005G15KT 6000 FEW100 TEMPO 2100/2104 00000KT 0500 FG VV/// FM211500 26007KT 3000 FU FEW100

Aktuella väderrapporter och prognoser från 4000 flygplatser (METAR- och TAF-rapporter).

De tillgängliga stationerna syns som gula och röda prickar på kartan.

För musen över prickarna för att se namnen på stationerna.

Klicka sedan för att få väderrapporter och prognoser.

För att ändra kartan: Klicka på de gröna knapparna med ett svart kors på för att zooma in; den gröna knappen med ett streck på för att zooma ut; eller på de gröna pilarna för angränsande kartor.


METAR-TAF: